Decoded Metar for WBSB (BRUNEI in BRUNEI) (IATA:BWN) | Meteo·Mobile Aviation Weather
aviador You're here:

WBSB Decoded Metar

BRUNEI in BRUNEI
Report Time2019-10-22 13:00:00
UTC Time2019-10-22 13:27:16
Flight Rules vfr VFR
Wind280° at 02 kt
W.Decomp.*RWY 21: 0.7 kt HW 1.9 kt RCW
Visibility9999 m
Phenomena:thunderstorm
Clouds:Few 015 Hf
Few CB 016 Hf
Broken 280 Hf
Expected CloudBase > 1,200 ft AGL from Temp-Dew spread
Ceiling28,000 ft
Temp28°C (ISA +13)
Dew Point25°C (84% RH)
Heat Index32.7°C
QNH1008 hPa
Density Alt2,139 ft
Elevation49 ft
Report Wrong Elevation
Raw Report
WBSB 221300Z 28002KT 9999 TS FEW015 FEW016CB BKN280 28/25 Q1008
NOSIG=

Extra information for WBSB:More info

Metar Taf Metar & Taf Last 4 Metars F.Rules Stats Wind Profile Meteogram Temp Stats Airport Information Weather charts Add Link Nearby VenuesMetar ALERT Operation Metar Decoded Social comments